Terminal Aerodrome Forecast
Issued by NWS

Current Version | Previous Version | Text Only | Print | Product List | Glossary On
Versions: 1 2 3 4 5 6 7 8 9 10 11 12 13 14 15 16 17 18 19 20 21 22 23 24 25 26 27 28 29 30 31 32 33 34 35 36 37 38 39 40 41 42 43 44 45 46 47 48 49 50
000
FTUS45 KBOI 060520
TAFMYL
TAF
KMYL 060520Z 0606/0706 VRB03KT P6SM VCSH OVC030
      TEMPO 0606/0608 4SM -SHSN BKN025
     FM060800 VRB03KT 3SM -SHSN SCT015 OVC025
     FM061100 VRB03KT 1SM -SHSN OVC005
     FM062100 VRB03KT 5SM -SHSN SCT005 OVC015
     FM070200 VRB03KT P6SM SCT020 OVC045=

USA.gov is the U.S. government's official web portal to all federal, state and local government web resources and services.